Time;durP1;ratioP1;P1;durP2;ratioP2;P2;SDS_P1;SDS_P2;PMS_P1;PMS_P2;Temp;Humidity;BMP_temperature;BMP_pressure;BME280_temperature;BME280_humidity;BME280_pressure;Samples;Min_cycle;Max_cycle;Signal;HPM_P1;HPM_P2
2023/09/02 00:01:59;;;;;;;5.10;2.10;;;;;;;;;;5073184;28;20056;-60
2023/09/02 00:04:29;;;;;;;8.27;3.00;;;;;;;;;;5073627;28;20066;-59
2023/09/02 00:06:55;;;;;;;4.30;2.60;;;;;;;;;;5073199;28;20067;-60
2023/09/02 00:09:22;;;;;;;7.93;2.20;;;;;;;;;;5073388;28;20052;-60
2023/09/02 00:11:49;;;;;;;4.30;2.17;;;;;;;;;;5073145;28;20048;-60
2023/09/02 00:14:16;;;;;;;5.97;1.90;;;;;;;;;;5073299;28;20053;-60
2023/09/02 00:16:43;;;;;;;4.75;2.15;;;;;;;;;;5072968;28;20053;-60
2023/09/02 00:19:09;;;;;;;3.28;2.35;;;;;;;;;;5073298;28;20060;-60
2023/09/02 00:21:38;;;;;;;2.83;1.60;;;;;;;;;;5072827;28;20405;-58
2023/09/02 00:24:06;;;;;;;4.93;2.53;;;;;;;;;;5073385;28;20056;-59
2023/09/02 00:26:33;;;;;;;5.38;2.50;;;;;;;;;;5073093;28;20052;-60
2023/09/02 00:29:00;;;;;;;5.80;3.20;;;;;;;;;;5072958;28;20494;-60
2023/09/02 00:31:27;;;;;;;4.45;2.53;;;;;;;;;;5072889;28;20052;-60
2023/09/02 00:33:54;;;;;;;4.82;2.67;;;;;;;;;;5072629;28;20060;-59
2023/09/02 00:36:21;;;;;;;6.25;2.92;;;;;;;;;;5072525;28;20060;-61
2023/09/02 00:38:49;;;;;;;5.22;2.65;;;;;;;;;;5072660;28;20433;-60
2023/09/02 00:41:19;;;;;;;5.05;2.25;;;;;;;;;;5072537;28;20048;-60
2023/09/02 00:43:46;;;;;;;5.03;2.92;;;;;;;;;;5072439;28;20059;-60
2023/09/02 00:46:13;;;;;;;2.85;1.98;;;;;;;;;;5072533;28;20053;-60
2023/09/02 00:48:40;;;;;;;4.25;2.40;;;;;;;;;;5072799;28;20052;-60
2023/09/02 00:51:07;;;;;;;2.67;1.75;;;;;;;;;;5072542;28;20052;-58
2023/09/02 00:53:34;;;;;;;3.60;2.17;;;;;;;;;;5072703;28;20052;-59
2023/09/02 00:56:02;;;;;;;3.25;1.85;;;;;;;;;;5072389;28;20064;-61
2023/09/02 00:58:29;;;;;;;4.22;1.98;;;;;;;;;;5072660;28;20052;-59
2023/09/02 01:00:57;;;;;;;4.55;2.28;;;;;;;;;;5072638;28;20052;-60
2023/09/02 01:03:24;;;;;;;4.30;2.88;;;;;;;;;;5072490;28;20052;-59
2023/09/02 01:05:51;;;;;;;6.18;2.30;;;;;;;;;;5072594;28;20497;-60
2023/09/02 01:08:19;;;;;;;3.78;2.83;;;;;;;;;;5071272;28;20075;-60
2023/09/02 01:10:46;;;;;;;4.03;2.55;;;;;;;;;;5072111;28;20516;-60
2023/09/02 01:13:14;;;;;;;5.03;2.65;;;;;;;;;;5072675;28;20139;-61
2023/09/02 01:15:41;;;;;;;4.25;1.95;;;;;;;;;;5072361;28;20409;-60
2023/09/02 01:18:07;;;;;;;4.50;2.28;;;;;;;;;;5072561;28;20425;-59
2023/09/02 01:20:51;;;;;;;4.15;2.47;;;;;;;;;;5072503;28;20065;-60
2023/09/02 01:23:31;;;;;;;5.28;2.65;;;;;;;;;;5072349;28;20064;-60
2023/09/02 01:26:13;;;;;;;5.72;2.60;;;;;;;;;;5072520;28;20057;-60
2023/09/02 01:28:42;;;;;;;4.43;2.53;;;;;;;;;;5069977;28;20381;-60
2023/09/02 01:31:10;;;;;;;4.43;3.22;;;;;;;;;;5072070;28;20052;-60
2023/09/02 01:33:37;;;;;;;4.93;2.83;;;;;;;;;;5072442;28;20049;-59
2023/09/02 01:36:05;;;;;;;4.47;2.75;;;;;;;;;;5072051;28;20056;-60
2023/09/02 01:38:32;;;;;;;4.72;2.65;;;;;;;;;;5072155;28;20378;-60
2023/09/02 01:41:01;;;;;;;6.10;2.95;;;;;;;;;;5072240;28;20060;-59
2023/09/02 01:43:29;;;;;;;4.28;2.67;;;;;;;;;;5071901;28;20054;-61
2023/09/02 01:45:58;;;;;;;3.63;2.80;;;;;;;;;;5072208;28;20053;-60
2023/09/02 01:48:26;;;;;;;3.40;1.97;;;;;;;;;;5072013;28;20052;-59
2023/09/02 01:50:53;;;;;;;5.35;2.35;;;;;;;;;;5071714;28;20052;-60
2023/09/02 01:53:20;;;;;;;4.90;2.20;;;;;;;;;;5072108;28;20053;-59
2023/09/02 01:55:47;;;;;;;3.42;2.22;;;;;;;;;;5071781;28;20052;-59
2023/09/02 01:58:13;;;;;;;4.90;2.20;;;;;;;;;;5069323;28;20053;-60
2023/09/02 02:00:40;;;;;;;6.53;2.67;;;;;;;;;;5071602;28;20060;-60
2023/09/02 02:03:12;;;;;;;5.10;2.25;;;;;;;;;;5072082;28;20044;-60
2023/09/02 02:05:42;;;;;;;4.53;1.85;;;;;;;;;;5072023;28;20056;-60
2023/09/02 02:08:12;;;;;;;4.00;2.45;;;;;;;;;;5072108;28;20056;-60
2023/09/02 02:10:41;;;;;;;4.25;2.17;;;;;;;;;;5072153;28;20052;-60
2023/09/02 02:13:07;;;;;;;3.45;1.75;;;;;;;;;;5071808;28;20075;-60
2023/09/02 02:15:34;;;;;;;3.67;2.00;;;;;;;;;;5072118;28;20048;-60
2023/09/02 02:18:01;;;;;;;3.38;1.98;;;;;;;;;;5072243;28;20058;-60
2023/09/02 02:20:34;;;;;;;3.80;1.75;;;;;;;;;;5073923;28;20055;-60
2023/09/02 02:23:00;;;;;;;2.33;1.40;;;;;;;;;;5075344;28;20052;-59
2023/09/02 02:25:27;;;;;;;4.47;2.17;;;;;;;;;;5075667;28;20060;-60
2023/09/02 02:27:54;;;;;;;4.80;2.80;;;;;;;;;;5075526;28;20060;-60
2023/09/02 02:30:21;;;;;;;3.88;2.42;;;;;;;;;;5075668;28;20501;-60
2023/09/02 02:32:47;;;;;;;4.47;2.58;;;;;;;;;;5075482;28;20378;-60
2023/09/02 02:35:14;;;;;;;3.63;2.33;;;;;;;;;;5074744;28;20080;-59
2023/09/02 02:37:43;;;;;;;3.47;2.05;;;;;;;;;;5075433;28;20048;-60
2023/09/02 02:40:10;;;;;;;3.58;2.20;;;;;;;;;;5075334;28;20056;-60
2023/09/02 02:42:37;;;;;;;4.18;2.65;;;;;;;;;;5074738;28;20055;-59
2023/09/02 02:45:04;;;;;;;4.53;2.50;;;;;;;;;;5074892;28;20139;-60
2023/09/02 02:47:30;;;;;;;4.93;2.72;;;;;;;;;;5075067;28;20383;-60
2023/09/02 02:49:57;;;;;;;3.75;2.25;;;;;;;;;;5075100;28;20064;-59
2023/09/02 02:52:24;;;;;;;8.15;2.38;;;;;;;;;;5074729;28;20048;-59
2023/09/02 02:54:52;;;;;;;4.68;1.80;;;;;;;;;;5074894;28;20064;-60
2023/09/02 02:57:19;;;;;;;3.92;2.10;;;;;;;;;;5074473;28;20508;-60
2023/09/02 02:59:46;;;;;;;3.40;2.17;;;;;;;;;;5074588;28;20516;-60
2023/09/02 03:02:13;;;;;;;5.90;2.65;;;;;;;;;;5074790;28;20059;-60
2023/09/02 03:04:40;;;;;;;3.70;2.35;;;;;;;;;;5074666;28;20060;-60
2023/09/02 03:07:07;;;;;;;4.78;2.22;;;;;;;;;;5074647;28;20048;-60
2023/09/02 03:09:34;;;;;;;3.45;2.05;;;;;;;;;;5074574;28;20052;-61
2023/09/02 03:12:02;;;;;;;3.90;1.85;;;;;;;;;;5074532;28;20052;-60
2023/09/02 03:14:29;;;;;;;4.05;2.58;;;;;;;;;;5074279;28;20052;-60
2023/09/02 03:16:56;;;;;;;3.60;2.10;;;;;;;;;;5074061;28;20416;-60
2023/09/02 03:19:23;;;;;;;4.53;2.78;;;;;;;;;;5074491;28;20397;-60
2023/09/02 03:21:49;;;;;;;4.60;2.55;;;;;;;;;;5074483;28;20409;-60
2023/09/02 03:24:16;;;;;;;4.38;2.33;;;;;;;;;;5074252;28;20366;-60
2023/09/02 03:26:43;;;;;;;4.88;2.25;;;;;;;;;;5074213;28;20457;-60
2023/09/02 03:29:11;;;;;;;6.43;2.53;;;;;;;;;;5074163;28;20057;-60
2023/09/02 03:31:38;;;;;;;4.05;2.45;;;;;;;;;;5073347;28;20052;-60
2023/09/02 03:34:05;;;;;;;3.63;2.03;;;;;;;;;;5074050;28;20131;-60
2023/09/02 03:36:32;;;;;;;3.33;2.40;;;;;;;;;;5073741;28;20416;-60
2023/09/02 03:39:02;;;;;;;5.35;2.90;;;;;;;;;;5073944;28;20052;-59
2023/09/02 03:41:30;;;;;;;;;;;;;;;;;;5074494;28;20060;-59
2023/09/02 03:43:57;;;;;;;5.30;2.85;;;;;;;;;;5073809;28;19928;-61
2023/09/02 03:46:29;;;;;;;4.95;2.80;;;;;;;;;;5074094;28;20068;-60
2023/09/02 03:49:13;;;;;;;4.72;3.45;;;;;;;;;;5074649;28;20052;-61
2023/09/02 03:51:42;;;;;;;4.05;2.95;;;;;;;;;;5074092;28;20063;-61
2023/09/02 03:54:09;;;;;;;6.05;3.15;;;;;;;;;;5073809;28;20497;-59
2023/09/02 03:56:36;;;;;;;4.30;2.67;;;;;;;;;;5073940;28;20061;-60
2023/09/02 03:59:05;;;;;;;4.18;2.45;;;;;;;;;;5073890;28;20057;-60
2023/09/02 04:01:35;;;;;;;4.95;2.90;;;;;;;;;;5072945;28;20063;-59
2023/09/02 04:04:08;;;;;;;6.57;2.83;;;;;;;;;;5073268;28;20134;-60
2023/09/02 04:06:37;;;;;;;3.75;2.40;;;;;;;;;;5073118;28;20063;-59
2023/09/02 04:09:08;;;;;;;;;;;;;;;;;;5074026;28;20056;-61
2023/09/02 04:11:39;;;;;;;4.97;2.47;;;;;;;;;;5073706;28;19943;-60
2023/09/02 04:14:06;;;;;;;3.75;2.33;;;;;;;;;;5073427;28;20044;-60
2023/09/02 04:16:34;;;;;;;3.47;1.75;;;;;;;;;;5073275;28;20063;-59
2023/09/02 04:19:02;;;;;;;3.58;2.80;;;;;;;;;;5073102;28;20409;-59
2023/09/02 04:21:32;;;;;;;4.47;2.45;;;;;;;;;;5072406;28;20052;-59
2023/09/02 04:24:04;;;;;;;4.93;2.75;;;;;;;;;;5073056;28;20048;-60
2023/09/02 04:26:40;;;;;;;4.22;2.15;;;;;;;;;;5073041;28;20155;-60
2023/09/02 04:29:07;;;;;;;3.75;2.42;;;;;;;;;;5073031;28;20052;-60
2023/09/02 04:31:38;;;;;;;3.28;1.60;;;;;;;;;;5072953;28;20052;-60
2023/09/02 04:34:08;;;;;;;4.47;1.95;;;;;;;;;;5071408;28;20049;-60
2023/09/02 04:36:37;;;;;;;3.88;2.42;;;;;;;;;;5072563;28;20052;-60
2023/09/02 04:39:04;;;;;;;;;;;;;;;;;;5072949;28;20052;-60
2023/09/02 04:41:31;;;;;;;5.03;2.78;;;;;;;;;;5072340;28;19920;-60
2023/09/02 04:43:58;;;;;;;4.80;2.45;;;;;;;;;;5072170;28;20174;-60
2023/09/02 04:46:25;;;;;;;3.42;2.28;;;;;;;;;;5072246;28;20079;-60
2023/09/02 04:48:56;;;;;;;4.47;2.50;;;;;;;;;;5072660;28;20057;-60
2023/09/02 04:51:25;;;;;;;5.30;3.40;;;;;;;;;;5071352;28;20052;-60
2023/09/02 04:53:57;;;;;;;6.28;3.15;;;;;;;;;;5072527;28;20500;-60
2023/09/02 04:56:24;;;;;;;3.95;2.55;;;;;;;;;;5072781;28;20405;-60
2023/09/02 04:58:52;;;;;;;5.32;2.90;;;;;;;;;;5072247;28;20075;-59
2023/09/02 05:01:19;;;;;;;5.45;3.15;;;;;;;;;;5072422;28;20131;-59
2023/09/02 05:03:51;;;;;;;4.50;2.78;;;;;;;;;;5072520;28;20064;-59
2023/09/02 05:06:19;;;;;;;4.68;2.35;;;;;;;;;;5072551;28;20075;-60
2023/09/02 05:08:53;;;;;;;5.88;3.13;;;;;;;;;;5072704;28;20063;-61
2023/09/02 05:11:20;;;;;;;6.47;3.00;;;;;;;;;;5072685;28;20052;-61
2023/09/02 05:13:48;;;;;;;8.05;2.72;;;;;;;;;;5072616;28;20053;-60
2023/09/02 05:16:16;;;;;;;5.53;3.35;;;;;;;;;;5072197;28;20421;-60
2023/09/02 05:18:43;;;;;;;5.45;2.90;;;;;;;;;;5072420;28;20075;-61
2023/09/02 05:21:10;;;;;;;4.55;2.90;;;;;;;;;;5072384;28;20063;-61
2023/09/02 05:23:52;;;;;;;4.07;2.30;;;;;;;;;;5072195;28;20052;-60
2023/09/02 05:26:19;;;;;;;4.93;3.50;;;;;;;;;;5072374;28;20052;-61
2023/09/02 05:28:46;;;;;;;6.22;2.85;;;;;;;;;;5072494;28;20057;-60
2023/09/02 05:31:13;;;;;;;3.58;2.13;;;;;;;;;;5072131;28;20057;-60
2023/09/02 05:33:39;;;;;;;4.47;2.42;;;;;;;;;;5072359;28;20055;-61
2023/09/02 05:36:06;;;;;;;4.50;2.60;;;;;;;;;;5071893;28;20056;-61
2023/09/02 05:38:33;;;;;;;4.13;2.83;;;;;;;;;;5071650;28;20059;-60
2023/09/02 05:41:01;;;;;;;4.53;3.08;;;;;;;;;;5072280;28;20053;-61
2023/09/02 05:43:29;;;;;;;4.43;2.50;;;;;;;;;;5072185;28;20401;-61
2023/09/02 05:45:57;;;;;;;4.60;2.33;;;;;;;;;;5072330;28;20072;-61
2023/09/02 05:48:24;;;;;;;5.65;2.85;;;;;;;;;;5072056;28;20401;-61
2023/09/02 05:50:51;;;;;;;2.95;1.80;;;;;;;;;;5071812;28;20412;-59
2023/09/02 05:53:18;;;;;;;3.40;2.05;;;;;;;;;;5071848;28;20055;-59
2023/09/02 05:55:52;;;;;;;3.80;2.70;;;;;;;;;;5074386;28;20052;-58
2023/09/02 05:58:20;;;;;;;4.60;2.92;;;;;;;;;;5075752;28;20052;-58
2023/09/02 06:00:48;;;;;;;4.10;2.67;;;;;;;;;;5075619;28;20048;-61
2023/09/02 06:03:14;;;;;;;3.88;2.58;;;;;;;;;;5075660;28;20056;-61
2023/09/02 06:05:41;;;;;;;5.13;2.53;;;;;;;;;;5075265;28;20115;-60
2023/09/02 06:08:08;;;;;;;3.67;2.50;;;;;;;;;;5075857;28;20393;-60
2023/09/02 06:10:35;;;;;;;3.25;2.10;;;;;;;;;;5075586;28;20052;-60
2023/09/02 06:13:01;;;;;;;5.63;3.05;;;;;;;;;;5075774;28;20056;-60
2023/09/02 06:15:29;;;;;;;4.32;2.53;;;;;;;;;;5075693;28;20056;-60
2023/09/02 06:17:56;;;;;;;4.32;1.98;;;;;;;;;;5075184;28;20053;-61
2023/09/02 06:20:23;;;;;;;4.93;2.65;;;;;;;;;;5075538;28;20057;-60
2023/09/02 06:22:50;;;;;;;5.47;2.85;;;;;;;;;;5075395;28;20048;-60
2023/09/02 06:25:17;;;;;;;4.97;2.40;;;;;;;;;;5075320;28;20055;-60
2023/09/02 06:27:44;;;;;;;5.35;2.10;;;;;;;;;;5075316;28;20052;-60
2023/09/02 06:30:11;;;;;;;5.07;2.70;;;;;;;;;;5075494;28;20063;-59
2023/09/02 06:32:39;;;;;;;5.35;2.75;;;;;;;;;;5074941;28;20048;-60
2023/09/02 06:35:08;;;;;;;4.55;2.47;;;;;;;;;;5074870;28;20061;-61
2023/09/02 06:37:34;;;;;;;4.90;2.38;;;;;;;;;;5075100;28;20052;-61
2023/09/02 06:40:01;;;;;;;4.53;2.50;;;;;;;;;;5075292;28;20056;-60
2023/09/02 06:42:29;;;;;;;5.30;2.75;;;;;;;;;;5075144;28;20405;-60
2023/09/02 06:44:56;;;;;;;3.15;1.90;;;;;;;;;;5075137;28;20055;-61
2023/09/02 06:47:23;;;;;;;4.15;2.55;;;;;;;;;;5074950;28;20053;-60
2023/09/02 06:49:51;;;;;;;2.70;1.80;;;;;;;;;;5074913;28;20052;-60
2023/09/02 06:52:18;;;;;;;3.08;1.98;;;;;;;;;;5074739;28;20052;-60
2023/09/02 06:54:47;;;;;;;4.38;2.60;;;;;;;;;;5075135;28;20055;-60
2023/09/02 06:57:14;;;;;;;;;;;;;;;;;;5075116;28;20048;-60
2023/09/02 06:59:41;;;;;;;2.88;1.83;;;;;;;;;;5074780;28;19928;-61
2023/09/02 07:02:08;;;;;;;3.08;1.80;;;;;;;;;;5074991;28;20048;-60
2023/09/02 07:04:35;;;;;;;3.67;2.17;;;;;;;;;;5075053;28;20071;-61
2023/09/02 07:07:03;;;;;;;4.85;2.80;;;;;;;;;;5074230;28;20059;-60
2023/09/02 07:09:30;;;;;;;4.20;2.22;;;;;;;;;;5075158;28;20052;-61
2023/09/02 07:11:56;;;;;;;3.00;1.90;;;;;;;;;;5074843;28;20064;-60
2023/09/02 07:14:23;;;;;;;3.13;1.80;;;;;;;;;;5074873;28;20059;-60
2023/09/02 07:16:51;;;;;;;2.22;1.38;;;;;;;;;;5074542;28;20405;-59
2023/09/02 07:19:17;;;;;;;3.95;1.75;;;;;;;;;;5074794;28;20052;-60
2023/09/02 07:21:44;;;;;;;1.95;1.40;;;;;;;;;;5074588;28;20374;-60
2023/09/02 07:24:13;;;;;;;3.22;1.67;;;;;;;;;;5074577;28;20075;-61
2023/09/02 07:26:40;;;;;;;2.38;1.52;;;;;;;;;;5074653;28;20049;-61
2023/09/02 07:29:07;;;;;;;3.38;1.63;;;;;;;;;;5074487;28;20052;-60
2023/09/02 07:31:33;;;;;;;3.33;2.03;;;;;;;;;;5074308;28;20063;-60
2023/09/02 07:34:00;;;;;;;5.07;2.40;;;;;;;;;;5074472;28;20053;-61
2023/09/02 07:36:27;;;;;;;3.00;1.60;;;;;;;;;;5073780;28;20040;-61
2023/09/02 07:38:54;;;;;;;3.72;1.98;;;;;;;;;;5074287;28;20143;-61
2023/09/02 07:41:22;;;;;;;2.92;1.55;;;;;;;;;;5073901;28;20363;-60
2023/09/02 07:43:49;;;;;;;2.45;1.80;;;;;;;;;;5073502;28;20409;-61
2023/09/02 07:46:15;;;;;;;3.63;1.30;;;;;;;;;;5073924;28;20059;-60
2023/09/02 07:48:43;;;;;;;2.13;1.42;;;;;;;;;;5074115;28;20609;-60
2023/09/02 07:51:10;;;;;;;2.65;1.27;;;;;;;;;;5073594;28;20064;-61
2023/09/02 07:53:36;;;;;;;2.70;1.63;;;;;;;;;;5073972;28;20052;-61
2023/09/02 07:56:03;;;;;;;2.78;1.30;;;;;;;;;;5073605;28;20500;-61
2023/09/02 07:58:31;;;;;;;3.17;1.23;;;;;;;;;;5073837;28;20052;-61
2023/09/02 08:00:58;;;;;;;2.30;1.20;;;;;;;;;;5073468;28;20053;-61
2023/09/02 08:03:25;;;;;;;1.73;0.90;;;;;;;;;;5073546;28;20060;-61
2023/09/02 08:05:52;;;;;;;1.40;1.00;;;;;;;;;;5073451;28;20414;-61
2023/09/02 08:08:19;;;;;;;1.15;0.68;;;;;;;;;;5073473;28;20052;-60
2023/09/02 08:10:45;;;;;;;1.30;0.68;;;;;;;;;;5073452;28;20473;-61
2023/09/02 08:13:12;;;;;;;2.63;0.98;;;;;;;;;;5073303;28;20489;-59
2023/09/02 08:15:40;;;;;;;1.42;1.00;;;;;;;;;;5073153;28;20493;-61
2023/09/02 08:18:07;;;;;;;1.08;0.55;;;;;;;;;;5073002;28;20053;-61
2023/09/02 08:20:35;;;;;;;0.85;0.55;;;;;;;;;;5073050;28;20508;-58
2023/09/02 08:23:02;;;;;;;1.57;0.57;;;;;;;;;;5073087;28;20421;-59
2023/09/02 08:25:29;;;;;;;1.25;0.80;;;;;;;;;;5072925;28;20048;-59
2023/09/02 08:27:55;;;;;;;0.88;0.50;;;;;;;;;;5072683;28;20055;-60
2023/09/02 08:30:22;;;;;;;1.27;0.75;;;;;;;;;;5073187;28;20059;-60
2023/09/02 08:32:51;;;;;;;1.20;0.45;;;;;;;;;;5073093;28;20056;-60
2023/09/02 08:35:18;;;;;;;0.82;0.52;;;;;;;;;;5072627;28;20455;-61
2023/09/02 08:37:45;;;;;;;1.38;0.60;;;;;;;;;;5072658;28;20060;-59
2023/09/02 08:40:12;;;;;;;2.13;0.73;;;;;;;;;;5072673;28;20048;-59
2023/09/02 08:42:40;;;;;;;1.45;0.80;;;;;;;;;;5072632;28;20057;-61
2023/09/02 08:45:08;;;;;;;1.02;0.60;;;;;;;;;;5072555;28;20074;-59
2023/09/02 08:47:36;;;;;;;1.67;0.60;;;;;;;;;;5072951;28;20052;-59
2023/09/02 08:50:04;;;;;;;1.77;0.70;;;;;;;;;;5072999;28;20056;-60
2023/09/02 08:52:31;;;;;;;1.63;0.77;;;;;;;;;;5072638;28;20434;-60
2023/09/02 08:54:58;;;;;;;1.17;0.60;;;;;;;;;;5072977;28;20059;-60
2023/09/02 08:57:25;;;;;;;1.02;0.57;;;;;;;;;;5072581;28;20382;-59
2023/09/02 08:59:52;;;;;;;0.80;0.40;;;;;;;;;;5072613;28;20049;-60
2023/09/02 09:02:19;;;;;;;0.80;0.40;;;;;;;;;;5072466;28;20057;-60
2023/09/02 09:04:48;;;;;;;1.08;0.50;;;;;;;;;;5072614;28;20061;-60
2023/09/02 09:07:17;;;;;;;0.70;0.40;;;;;;;;;;5072527;28;20067;-60
2023/09/02 09:09:44;;;;;;;0.90;0.40;;;;;;;;;;5072423;28;20505;-60
2023/09/02 09:12:12;;;;;;;0.85;0.55;;;;;;;;;;5072691;28;20382;-59
2023/09/02 09:14:42;;;;;;;0.93;0.60;;;;;;;;;;5072783;28;20501;-60
2023/09/02 09:17:09;;;;;;;0.98;0.50;;;;;;;;;;5072411;28;20048;-60
2023/09/02 09:19:37;;;;;;;1.08;0.63;;;;;;;;;;5072688;28;20052;-60
2023/09/02 09:22:03;;;;;;;0.82;0.55;;;;;;;;;;5072492;28;20052;-60
2023/09/02 09:24:32;;;;;;;0.85;0.40;;;;;;;;;;5072477;28;20110;-60
2023/09/02 09:26:59;;;;;;;1.20;0.60;;;;;;;;;;5071903;28;20405;-60
2023/09/02 09:29:26;;;;;;;1.23;0.60;;;;;;;;;;5072925;28;20064;-60
2023/09/02 09:32:07;;;;;;;1.42;0.50;;;;;;;;;;5076121;28;20062;-59
2023/09/02 09:34:35;;;;;;;1.98;0.57;;;;;;;;;;5076518;28;20059;-60
2023/09/02 09:37:03;;;;;;;0.80;0.50;;;;;;;;;;5076418;28;20053;-59
2023/09/02 09:39:40;;;;;;;0.85;0.52;;;;;;;;;;5075845;28;20060;-60
2023/09/02 09:42:07;;;;;;;0.80;0.50;;;;;;;;;;5076064;28;20051;-61
2023/09/02 09:44:33;;;;;;;0.70;0.30;;;;;;;;;;5076295;28;20474;-60
2023/09/02 09:47:00;;;;;;;1.10;0.57;;;;;;;;;;5076059;28;20052;-60
2023/09/02 09:49:28;;;;;;;0.60;0.40;;;;;;;;;;5076627;28;20060;-60
2023/09/02 09:52:08;;;;;;;0.70;0.40;;;;;;;;;;5076225;28;20386;-59
2023/09/02 09:54:36;;;;;;;0.80;0.40;;;;;;;;;;5076342;28;20065;-60
2023/09/02 09:57:05;;;;;;;0.60;0.40;;;;;;;;;;5076243;28;20048;-59
2023/09/02 09:59:32;;;;;;;0.63;0.40;;;;;;;;;;5075953;28;20470;-60
2023/09/02 10:02:00;;;;;;;0.70;0.40;;;;;;;;;;5075797;28;20067;-59
2023/09/02 10:04:27;;;;;;;0.55;0.20;;;;;;;;;;5076146;28;20052;-60
2023/09/02 10:06:57;;;;;;;0.60;0.40;;;;;;;;;;5075802;28;20049;-60
2023/09/02 10:09:24;;;;;;;0.57;0.35;;;;;;;;;;5076014;28;20052;-60
2023/09/02 10:11:51;;;;;;;1.00;0.50;;;;;;;;;;5075806;28;20052;-60
2023/09/02 10:14:19;;;;;;;0.80;0.50;;;;;;;;;;5075833;28;20053;-60
2023/09/02 10:16:46;;;;;;;0.90;0.40;;;;;;;;;;5075708;28;20059;-60
2023/09/02 10:19:13;;;;;;;0.88;0.50;;;;;;;;;;5075806;28;20052;-60
2023/09/02 10:21:41;;;;;;;2.20;0.52;;;;;;;;;;5075558;28;20113;-60
2023/09/02 10:24:10;;;;;;;0.63;0.50;;;;;;;;;;5075289;28;20416;-60
2023/09/02 10:26:41;;;;;;;0.77;0.47;;;;;;;;;;5075065;28;20486;-60
2023/09/02 10:29:09;;;;;;;0.70;0.45;;;;;;;;;;5075602;28;20449;-60
2023/09/02 10:31:39;;;;;;;0.93;0.43;;;;;;;;;;5075539;28;20052;-60
2023/09/02 10:34:13;;;;;;;0.55;0.40;;;;;;;;;;5075019;28;20064;-60
2023/09/02 10:36:42;;;;;;;0.82;0.50;;;;;;;;;;5075551;28;20378;-60
2023/09/02 10:39:10;;;;;;;0.68;0.50;;;;;;;;;;5075349;28;20409;-60
2023/09/02 10:41:37;;;;;;;;;;;;;;;;;;5075342;28;20060;-60
2023/09/02 10:44:04;;;;;;;0.80;0.50;;;;;;;;;;5075692;28;20273;-60
2023/09/02 10:46:31;;;;;;;0.75;0.40;;;;;;;;;;5074644;28;20048;-61
2023/09/02 10:48:59;;;;;;;0.47;0.47;;;;;;;;;;5075332;28;20052;-60
2023/09/02 10:51:26;;;;;;;1.13;0.43;;;;;;;;;;5075163;28;20486;-60
2023/09/02 10:53:57;;;;;;;0.65;0.47;;;;;;;;;;5075139;28;20049;-60
2023/09/02 10:56:27;;;;;;;0.63;0.45;;;;;;;;;;5074959;28;20053;-60
2023/09/02 10:58:54;;;;;;;0.65;0.38;;;;;;;;;;5075088;28;20080;-60
2023/09/02 11:01:22;;;;;;;0.70;0.47;;;;;;;;;;5074867;28;20053;-60
2023/09/02 11:03:49;;;;;;;0.80;0.50;;;;;;;;;;5074925;28;20075;-60
2023/09/02 11:06:17;;;;;;;0.82;0.38;;;;;;;;;;5074704;28;20389;-60
2023/09/02 11:08:46;;;;;;;1.92;0.40;;;;;;;;;;5074346;28;20048;-60
2023/09/02 11:11:13;;;;;;;0.43;0.28;;;;;;;;;;5074535;28;20151;-60
2023/09/02 11:13:59;;;;;;;0.93;0.47;;;;;;;;;;5074516;28;20049;-60
2023/09/02 11:16:25;;;;;;;0.85;0.40;;;;;;;;;;5074580;28;20389;-60
2023/09/02 11:18:52;;;;;;;0.77;0.30;;;;;;;;;;5074736;28;20060;-59
2023/09/02 11:21:39;;;;;;;1.45;0.50;;;;;;;;;;5074597;28;20052;-59
2023/09/02 11:24:16;;;;;;;0.90;0.60;;;;;;;;;;5074370;28;20405;-59
2023/09/02 11:26:52;;;;;;;0.52;0.30;;;;;;;;;;5074223;28;20497;-59
2023/09/02 11:29:22;;;;;;;0.57;0.35;;;;;;;;;;5074307;28;20052;-60
2023/09/02 11:31:55;;;;;;;0.68;0.30;;;;;;;;;;5074211;28;20504;-60
2023/09/02 11:34:22;;;;;;;0.68;0.40;;;;;;;;;;5073946;28;20394;-60
2023/09/02 11:36:51;;;;;;;0.88;0.55;;;;;;;;;;5073815;28;20505;-60
2023/09/02 11:39:18;;;;;;;1.20;0.52;;;;;;;;;;5074322;28;20053;-60
2023/09/02 11:41:44;;;;;;;1.05;0.40;;;;;;;;;;5074154;28;20405;-60
2023/09/02 11:44:12;;;;;;;1.48;0.60;;;;;;;;;;5074210;28;20053;-59
2023/09/02 11:46:39;;;;;;;2.97;0.60;;;;;;;;;;5073590;28;20051;-59
2023/09/02 11:49:11;;;;;;;0.83;0.50;;;;;;;;;;5074016;28;20060;-59
2023/09/02 11:51:38;;;;;;;0.77;0.40;;;;;;;;;;5073879;28;20478;-59
2023/09/02 11:54:07;;;;;;;0.85;0.60;;;;;;;;;;5073182;28;20056;-59
2023/09/02 11:56:34;;;;;;;0.93;0.50;;;;;;;;;;5073763;28;20072;-59
2023/09/02 11:59:01;;;;;;;0.70;0.60;;;;;;;;;;5073872;28;20573;-60
2023/09/02 12:01:28;;;;;;;0.80;0.60;;;;;;;;;;5073756;28;20079;-60
2023/09/02 12:03:55;;;;;;;1.65;0.50;;;;;;;;;;5073663;28;20405;-59
2023/09/02 12:06:22;;;;;;;0.80;0.40;;;;;;;;;;5073434;28;20053;-59
2023/09/02 12:08:50;;;;;;;0.68;0.40;;;;;;;;;;5073355;28;20110;-59
2023/09/02 12:11:18;;;;;;;0.80;0.55;;;;;;;;;;5072986;28;20060;-60
2023/09/02 12:13:45;;;;;;;0.98;0.63;;;;;;;;;;5073436;28;20466;-59
2023/09/02 12:16:15;;;;;;;0.80;0.50;;;;;;;;;;5072924;28;20490;-58
2023/09/02 12:18:42;;;;;;;2.55;0.50;;;;;;;;;;5073361;28;20126;-59
2023/09/02 12:21:09;;;;;;;0.85;0.45;;;;;;;;;;5072861;28;20059;-59
2023/09/02 12:23:36;;;;;;;0.82;0.50;;;;;;;;;;5073306;28;20075;-59
2023/09/02 12:26:04;;;;;;;1.48;0.77;;;;;;;;;;5073285;28;20059;-58
2023/09/02 12:28:32;;;;;;;0.68;0.43;;;;;;;;;;5073145;28;20052;-59
2023/09/02 12:30:59;;;;;;;0.93;0.55;;;;;;;;;;5073393;28;20488;-59
2023/09/02 12:33:26;;;;;;;0.73;0.40;;;;;;;;;;5072994;28;20064;-59
2023/09/02 12:35:53;;;;;;;1.98;0.60;;;;;;;;;;5072603;28;20389;-59
2023/09/02 12:38:21;;;;;;;1.75;0.80;;;;;;;;;;5073060;28;20049;-59
2023/09/02 12:40:52;;;;;;;2.00;0.75;;;;;;;;;;5073111;28;20049;-59
2023/09/02 12:43:23;;;;;;;1.20;0.70;;;;;;;;;;5073057;28;20048;-58
2023/09/02 12:45:52;;;;;;;1.17;0.60;;;;;;;;;;5072697;28;20052;-59
2023/09/02 12:48:19;;;;;;;;;;;;;;;;;;5072838;28;20068;-59
2023/09/02 12:50:45;;;;;;;1.00;0.60;;;;;;;;;;5072759;28;19928;-59
2023/09/02 12:53:13;;;;;;;0.93;0.60;;;;;;;;;;5072641;28;20056;-59
2023/09/02 12:55:40;;;;;;;1.17;0.60;;;;;;;;;;5072798;28;20405;-59
2023/09/02 12:58:07;;;;;;;0.85;0.47;;;;;;;;;;5072571;28;20385;-59
2023/09/02 13:00:34;;;;;;;0.82;0.60;;;;;;;;;;5072360;28;20055;-59
2023/09/02 13:03:02;;;;;;;1.85;0.80;;;;;;;;;;5072456;28;20063;-59
2023/09/02 13:05:29;;;;;;;1.38;0.90;;;;;;;;;;5072474;28;20079;-59
2023/09/02 13:07:56;;;;;;;1.17;0.60;;;;;;;;;;5072336;28;20048;-59
2023/09/02 13:10:24;;;;;;;1.00;0.60;;;;;;;;;;5072499;28;20067;-59
2023/09/02 13:12:51;;;;;;;0.90;0.50;;;;;;;;;;5072350;28;20048;-59
2023/09/02 13:15:17;;;;;;;1.73;0.75;;;;;;;;;;5072102;28;20056;-59
2023/09/02 13:17:46;;;;;;;4.00;0.95;;;;;;;;;;5072111;28;20048;-59
2023/09/02 13:20:16;;;;;;;1.27;0.60;;;;;;;;;;5072368;28;20497;-59
2023/09/02 13:22:45;;;;;;;1.52;1.02;;;;;;;;;;5072274;28;20053;-59
2023/09/02 13:25:13;;;;;;;2.20;0.73;;;;;;;;;;5072492;28;20059;-59
2023/09/02 13:27:40;;;;;;;1.50;0.75;;;;;;;;;;5072370;28;20049;-59
2023/09/02 13:30:09;;;;;;;1.25;0.82;;;;;;;;;;5072415;28;20052;-59
2023/09/02 13:32:36;;;;;;;1.60;1.00;;;;;;;;;;5071889;28;20055;-59
2023/09/02 13:35:08;;;;;;;1.95;1.00;;;;;;;;;;5071952;28;20059;-59
2023/09/02 13:37:36;;;;;;;1.35;0.82;;;;;;;;;;5071944;28;20056;-60
2023/09/02 13:40:07;;;;;;;1.42;0.90;;;;;;;;;;5072041;28;20417;-60
2023/09/02 13:42:34;;;;;;;1.65;0.90;;;;;;;;;;5072295;28;20064;-59
2023/09/02 13:45:07;;;;;;;1.20;0.70;;;;;;;;;;5072210;28;20405;-60
2023/09/02 13:47:34;;;;;;;2.30;0.73;;;;;;;;;;5071752;28;20060;-60
2023/09/02 13:50:01;;;;;;;1.50;0.90;;;;;;;;;;5071939;28;20418;-59
2023/09/02 13:52:28;;;;;;;1.60;0.90;;;;;;;;;;5071788;28;20057;-59
2023/09/02 13:54:57;;;;;;;0.98;0.85;;;;;;;;;;5071910;28;20079;-59
2023/09/02 13:57:24;;;;;;;1.73;0.80;;;;;;;;;;5072242;28;20120;-59
2023/09/02 13:59:55;;;;;;;1.52;1.10;;;;;;;;;;5072286;28;20052;-60
2023/09/02 14:02:23;;;;;;;1.58;0.90;;;;;;;;;;5072232;28;20055;-59
2023/09/02 14:04:50;;;;;;;2.10;0.73;;;;;;;;;;5072047;28;20409;-59
2023/09/02 14:07:17;;;;;;;1.27;0.70;;;;;;;;;;5071771;28;20405;-60
2023/09/02 14:09:44;;;;;;;2.13;1.20;;;;;;;;;;5071513;28;20059;-59
2023/09/02 14:12:13;;;;;;;1.63;0.80;;;;;;;;;;5071672;28;20494;-60
2023/09/02 14:14:40;;;;;;;1.52;0.75;;;;;;;;;;5072042;28;20052;-59
2023/09/02 14:17:07;;;;;;;1.83;0.68;;;;;;;;;;5074586;28;20056;-59
2023/09/02 14:19:33;;;;;;;0.90;0.50;;;;;;;;;;5075845;28;20070;-59
2023/09/02 14:22:00;;;;;;;0.93;0.55;;;;;;;;;;5075586;28;20354;-59
2023/09/02 14:24:27;;;;;;;1.20;0.80;;;;;;;;;;5075722;28;20056;-59
2023/09/02 14:27:10;;;;;;;0.98;0.55;;;;;;;;;;5075162;28;20056;-59
2023/09/02 14:29:38;;;;;;;1.45;0.88;;;;;;;;;;5075581;28;20417;-59
2023/09/02 14:32:05;;;;;;;1.20;0.60;;;;;;;;;;5075536;28;20401;-59
2023/09/02 14:34:32;;;;;;;1.75;0.60;;;;;;;;;;5075268;28;20056;-60
2023/09/02 14:37:00;;;;;;;1.05;0.52;;;;;;;;;;5075345;28;20060;-59
2023/09/02 14:39:27;;;;;;;1.07;0.47;;;;;;;;;;5075491;28;20048;-59
2023/09/02 14:41:54;;;;;;;1.23;0.55;;;;;;;;;;5075093;28;20052;-59
2023/09/02 14:44:22;;;;;;;1.10;0.60;;;;;;;;;;5075476;28;20049;-59
2023/09/02 14:46:50;;;;;;;1.13;0.60;;;;;;;;;;5074838;28;20071;-59
2023/09/02 14:49:17;;;;;;;0.90;0.45;;;;;;;;;;5075002;28;20067;-60
2023/09/02 14:51:44;;;;;;;2.20;1.20;;;;;;;;;;5074627;28;20390;-59